sensor_id;sensor_type;location;lat;lon;timestamp;temperature;humidity
14775;DHT22;7479;47.042;15.160;2022-11-11T08:16:50;3.20;99.90
14775;DHT22;7479;47.042;15.160;2022-11-11T08:22:03;3.40;99.90
14775;DHT22;7479;47.042;15.160;2022-11-11T08:27:16;3.60;99.90
14775;DHT22;7479;47.042;15.160;2022-11-11T08:32:30;3.90;99.90
14775;DHT22;7479;47.042;15.160;2022-11-11T08:37:42;4.30;99.90
14775;DHT22;7479;47.042;15.160;2022-11-11T08:42:55;4.70;99.90
14775;DHT22;7479;47.042;15.160;2022-11-11T08:48:09;5.10;99.90
14775;DHT22;7479;47.042;15.160;2022-11-11T08:53:22;5.50;99.90
14775;DHT22;7479;47.042;15.160;2022-11-11T08:58:36;5.70;99.90
14775;DHT22;7479;47.042;15.160;2022-11-11T09:03:50;5.90;99.90
14775;DHT22;7479;47.042;15.160;2022-11-11T09:09:03;6.10;99.90
14775;DHT22;7479;47.042;15.160;2022-11-11T09:14:15;6.20;99.90
14775;DHT22;7479;47.042;15.160;2022-11-11T09:19:28;6.50;99.90
14775;DHT22;7479;47.042;15.160;2022-11-11T09:24:41;6.70;99.90
14775;DHT22;7479;47.042;15.160;2022-11-11T09:29:53;6.80;99.90
14775;DHT22;7479;47.042;15.160;2022-11-11T09:35:07;6.90;99.90
14775;DHT22;7479;47.042;15.160;2022-11-11T09:40:22;7.20;99.90
14775;DHT22;7479;47.042;15.160;2022-11-11T09:45:42;7.40;99.90
14775;DHT22;7479;47.042;15.160;2022-11-11T09:51:01;7.70;99.90
14775;DHT22;7479;47.042;15.160;2022-11-11T09:56:17;7.90;99.90
14775;DHT22;7479;47.042;15.160;2022-11-11T10:01:49;8.20;99.90
14775;DHT22;7479;47.042;15.160;2022-11-11T10:07:08;8.40;99.90
14775;DHT22;7479;47.042;15.160;2022-11-11T10:12:26;8.60;99.90
14775;DHT22;7479;47.042;15.160;2022-11-11T10:18:03;8.90;99.90
14775;DHT22;7479;47.042;15.160;2022-11-11T10:23:20;9.20;99.90
14775;DHT22;7479;47.042;15.160;2022-11-11T10:28:41;9.40;99.90
14775;DHT22;7479;47.042;15.160;2022-11-11T10:33:59;9.70;99.90
14775;DHT22;7479;47.042;15.160;2022-11-11T10:39:19;9.90;99.90
14775;DHT22;7479;47.042;15.160;2022-11-11T10:44:33;10.10;99.90
14775;DHT22;7479;47.042;15.160;2022-11-11T10:49:51;10.20;99.90
14775;DHT22;7479;47.042;15.160;2022-11-11T10:55:10;10.50;99.90
14775;DHT22;7479;47.042;15.160;2022-11-11T11:00:25;10.60;99.90
14775;DHT22;7479;47.042;15.160;2022-11-11T11:05:41;10.70;99.90
14775;DHT22;7479;47.042;15.160;2022-11-11T11:11:00;10.70;99.90
14775;DHT22;7479;47.042;15.160;2022-11-11T11:16:17;10.70;99.90
14775;DHT22;7479;47.042;15.160;2022-11-11T11:21:47;10.80;99.90
14775;DHT22;7479;47.042;15.160;2022-11-11T11:27:03;10.90;99.90
14775;DHT22;7479;47.042;15.160;2022-11-11T11:32:18;10.90;99.90
14775;DHT22;7479;47.042;15.160;2022-11-11T11:37:31;10.90;99.90
14775;DHT22;7479;47.042;15.160;2022-11-11T11:42:45;10.90;99.90
14775;DHT22;7479;47.042;15.160;2022-11-11T11:48:11;10.90;99.90
14775;DHT22;7479;47.042;15.160;2022-11-11T11:53:59;10.90;99.90
14775;DHT22;7479;47.042;15.160;2022-11-11T11:59:19;11.00;99.90
14775;DHT22;7479;47.042;15.160;2022-11-11T12:04:54;11.10;99.90
14775;DHT22;7479;47.042;15.160;2022-11-11T12:10:21;11.50;99.90
14775;DHT22;7479;47.042;15.160;2022-11-11T12:15:40;12.00;99.90
14775;DHT22;7479;47.042;15.160;2022-11-11T12:20:58;12.50;99.90
14775;DHT22;7479;47.042;15.160;2022-11-11T12:26:18;13.10;99.90
14775;DHT22;7479;47.042;15.160;2022-11-11T12:31:43;13.80;99.90
14775;DHT22;7479;47.042;15.160;2022-11-11T12:37:04;14.00;99.90
14775;DHT22;7479;47.042;15.160;2022-11-11T12:42:36;14.10;99.90
14775;DHT22;7479;47.042;15.160;2022-11-11T12:48:00;14.10;99.90
14775;DHT22;7479;47.042;15.160;2022-11-11T12:53:23;14.00;99.90
14775;DHT22;7479;47.042;15.160;2022-11-11T12:58:43;14.00;99.90
14775;DHT22;7479;47.042;15.160;2022-11-11T13:04:10;13.70;99.90
14775;DHT22;7479;47.042;15.160;2022-11-11T13:09:46;13.50;99.90
14775;DHT22;7479;47.042;15.160;2022-11-11T13:15:10;13.20;99.90
14775;DHT22;7479;47.042;15.160;2022-11-11T13:20:38;13.40;99.90
14775;DHT22;7479;47.042;15.160;2022-11-11T13:25:55;13.90;99.90
14775;DHT22;7479;47.042;15.160;2022-11-11T13:31:20;13.70;99.90
14775;DHT22;7479;47.042;15.160;2022-11-11T13:36:41;13.50;99.90
14775;DHT22;7479;47.042;15.160;2022-11-11T13:41:57;15.70;99.90
14775;DHT22;7479;47.042;15.160;2022-11-11T13:47:14;16.80;99.90
14775;DHT22;7479;47.042;15.160;2022-11-11T13:52:33;16.60;99.90
14775;DHT22;7479;47.042;15.160;2022-11-11T13:57:49;16.30;99.90
14775;DHT22;7479;47.042;15.160;2022-11-11T14:03:30;15.70;99.90
14775;DHT22;7479;47.042;15.160;2022-11-11T14:08:52;14.80;99.90
14775;DHT22;7479;47.042;15.160;2022-11-11T14:14:45;14.00;99.90
14775;DHT22;7479;47.042;15.160;2022-11-11T14:26:19;12.40;99.90
14775;DHT22;7479;47.042;15.160;2022-11-11T14:32:05;12.00;99.90
14775;DHT22;7479;47.042;15.160;2022-11-11T14:37:32;11.80;99.90
14775;DHT22;7479;47.042;15.160;2022-11-11T14:42:51;11.50;99.90
14775;DHT22;7479;47.042;15.160;2022-11-11T14:54:21;11.00;99.90
14775;DHT22;7479;47.042;15.160;2022-11-11T14:59:37;10.70;99.90
14775;DHT22;7479;47.042;15.160;2022-11-11T15:04:49;10.50;99.90
14775;DHT22;7479;47.042;15.160;2022-11-11T15:10:18;10.30;99.90
14775;DHT22;7479;47.042;15.160;2022-11-11T15:15:40;10.10;99.90
14775;DHT22;7479;47.042;15.160;2022-11-11T15:21:06;9.80;99.90
14775;DHT22;7479;47.042;15.160;2022-11-11T15:26:24;9.60;99.90
14775;DHT22;7479;47.042;15.160;2022-11-11T15:31:49;9.50;99.90
14775;DHT22;7479;47.042;15.160;2022-11-11T15:37:11;9.30;99.90
14775;DHT22;7479;47.042;15.160;2022-11-11T15:42:29;9.10;99.90
14775;DHT22;7479;47.042;15.160;2022-11-11T15:47:46;8.90;99.90
14775;DHT22;7479;47.042;15.160;2022-11-11T15:52:59;8.70;99.90
14775;DHT22;7479;47.042;15.160;2022-11-11T15:58:24;8.50;99.90
14775;DHT22;7479;47.042;15.160;2022-11-11T16:03:41;8.30;99.90
14775;DHT22;7479;47.042;15.160;2022-11-11T16:08:55;8.20;99.90
14775;DHT22;7479;47.042;15.160;2022-11-11T16:14:15;8.10;99.90
14775;DHT22;7479;47.042;15.160;2022-11-11T16:19:34;8.10;99.90
14775;DHT22;7479;47.042;15.160;2022-11-11T16:24:47;7.90;99.90
14775;DHT22;7479;47.042;15.160;2022-11-11T16:30:17;7.80;99.90
14775;DHT22;7479;47.042;15.160;2022-11-11T16:35:35;7.60;99.90
14775;DHT22;7479;47.042;15.160;2022-11-11T16:40:48;7.50;99.90
14775;DHT22;7479;47.042;15.160;2022-11-11T16:46:02;7.40;99.90
14775;DHT22;7479;47.042;15.160;2022-11-11T16:51:24;7.30;99.90
